sensor_id;sensor_type;location;lat;lon;timestamp;P1;durP1;ratioP1;P2;durP2;ratioP2
41667;SDS011;27356;50.920;5.350;2023-05-07T00:01:45;6.90;;;5.07;;
41667;SDS011;27356;50.920;5.350;2023-05-07T00:04:11;9.98;;;5.32;;
41667;SDS011;27356;50.920;5.350;2023-05-07T00:06:38;7.30;;;5.07;;
41667;SDS011;27356;50.920;5.350;2023-05-07T00:09:03;7.63;;;4.72;;
41667;SDS011;27356;50.920;5.350;2023-05-07T00:11:29;7.85;;;4.97;;
41667;SDS011;27356;50.920;5.350;2023-05-07T00:13:55;5.65;;;4.47;;
41667;SDS011;27356;50.920;5.350;2023-05-07T00:16:21;6.00;;;4.50;;
41667;SDS011;27356;50.920;5.350;2023-05-07T00:18:46;7.05;;;4.70;;
41667;SDS011;27356;50.920;5.350;2023-05-07T00:21:12;6.30;;;4.60;;
41667;SDS011;27356;50.920;5.350;2023-05-07T00:23:38;5.30;;;4.38;;
41667;SDS011;27356;50.920;5.350;2023-05-07T00:26:03;7.35;;;4.82;;
41667;SDS011;27356;50.920;5.350;2023-05-07T00:28:29;5.50;;;4.53;;
41667;SDS011;27356;50.920;5.350;2023-05-07T00:30:55;4.95;;;4.20;;
41667;SDS011;27356;50.920;5.350;2023-05-07T00:33:21;5.80;;;4.63;;
41667;SDS011;27356;50.920;5.350;2023-05-07T00:35:47;7.38;;;5.25;;
41667;SDS011;27356;50.920;5.350;2023-05-07T00:38:13;6.03;;;4.65;;
41667;SDS011;27356;50.920;5.350;2023-05-07T00:40:39;5.43;;;4.93;;
41667;SDS011;27356;50.920;5.350;2023-05-07T00:43:05;8.05;;;5.10;;
41667;SDS011;27356;50.920;5.350;2023-05-07T00:45:32;5.65;;;4.43;;
41667;SDS011;27356;50.920;5.350;2023-05-07T00:47:59;6.53;;;5.07;;
41667;SDS011;27356;50.920;5.350;2023-05-07T00:50:26;10.02;;;5.38;;
41667;SDS011;27356;50.920;5.350;2023-05-07T00:52:52;6.07;;;5.30;;
41667;SDS011;27356;50.920;5.350;2023-05-07T00:55:18;7.43;;;5.60;;
41667;SDS011;27356;50.920;5.350;2023-05-07T00:57:45;10.60;;;5.15;;
41667;SDS011;27356;50.920;5.350;2023-05-07T01:00:11;8.77;;;5.82;;
41667;SDS011;27356;50.920;5.350;2023-05-07T01:02:40;7.03;;;5.47;;
41667;SDS011;27356;50.920;5.350;2023-05-07T01:05:07;6.63;;;5.25;;
41667;SDS011;27356;50.920;5.350;2023-05-07T01:07:35;6.63;;;5.90;;
41667;SDS011;27356;50.920;5.350;2023-05-07T01:10:02;6.93;;;6.20;;
41667;SDS011;27356;50.920;5.350;2023-05-07T01:12:29;7.80;;;5.78;;
41667;SDS011;27356;50.920;5.350;2023-05-07T01:14:56;6.50;;;4.72;;
41667;SDS011;27356;50.920;5.350;2023-05-07T01:17:22;9.05;;;4.90;;
41667;SDS011;27356;50.920;5.350;2023-05-07T01:19:48;8.38;;;5.07;;
41667;SDS011;27356;50.920;5.350;2023-05-07T01:22:15;5.90;;;5.00;;
41667;SDS011;27356;50.920;5.350;2023-05-07T01:24:43;10.07;;;4.68;;
41667;SDS011;27356;50.920;5.350;2023-05-07T01:27:09;5.70;;;4.72;;
41667;SDS011;27356;50.920;5.350;2023-05-07T01:29:35;7.75;;;4.50;;
41667;SDS011;27356;50.920;5.350;2023-05-07T01:32:00;5.85;;;4.43;;
41667;SDS011;27356;50.920;5.350;2023-05-07T01:34:28;7.72;;;4.60;;
41667;SDS011;27356;50.920;5.350;2023-05-07T01:36:57;5.40;;;4.55;;
41667;SDS011;27356;50.920;5.350;2023-05-07T01:39:24;6.65;;;4.18;;
41667;SDS011;27356;50.920;5.350;2023-05-07T01:41:53;7.95;;;5.03;;
41667;SDS011;27356;50.920;5.350;2023-05-07T01:44:21;12.00;;;5.35;;
41667;SDS011;27356;50.920;5.350;2023-05-07T01:46:47;5.45;;;4.78;;
41667;SDS011;27356;50.920;5.350;2023-05-07T01:49:14;6.47;;;4.80;;
41667;SDS011;27356;50.920;5.350;2023-05-07T01:51:40;7.70;;;4.72;;
41667;SDS011;27356;50.920;5.350;2023-05-07T01:54:06;10.38;;;5.05;;
41667;SDS011;27356;50.920;5.350;2023-05-07T01:56:33;6.07;;;4.72;;
41667;SDS011;27356;50.920;5.350;2023-05-07T01:58:59;9.98;;;5.25;;
41667;SDS011;27356;50.920;5.350;2023-05-07T02:01:25;8.70;;;4.97;;
41667;SDS011;27356;50.920;5.350;2023-05-07T02:03:51;10.25;;;5.13;;
41667;SDS011;27356;50.920;5.350;2023-05-07T02:06:16;6.25;;;4.68;;
41667;SDS011;27356;50.920;5.350;2023-05-07T02:08:42;8.50;;;4.65;;
41667;SDS011;27356;50.920;5.350;2023-05-07T02:11:08;5.65;;;4.63;;
41667;SDS011;27356;50.920;5.350;2023-05-07T02:13:34;5.00;;;4.50;;
41667;SDS011;27356;50.920;5.350;2023-05-07T02:15:59;5.93;;;4.45;;
41667;SDS011;27356;50.920;5.350;2023-05-07T02:18:25;6.57;;;4.32;;
41667;SDS011;27356;50.920;5.350;2023-05-07T02:20:51;5.93;;;5.22;;
41667;SDS011;27356;50.920;5.350;2023-05-07T02:23:17;5.90;;;4.90;;
41667;SDS011;27356;50.920;5.350;2023-05-07T02:25:43;5.68;;;5.00;;
41667;SDS011;27356;50.920;5.350;2023-05-07T02:28:08;6.30;;;5.07;;
41667;SDS011;27356;50.920;5.350;2023-05-07T02:30:34;7.22;;;5.00;;
41667;SDS011;27356;50.920;5.350;2023-05-07T02:33:00;5.32;;;4.80;;
41667;SDS011;27356;50.920;5.350;2023-05-07T02:35:26;6.30;;;5.47;;
41667;SDS011;27356;50.920;5.350;2023-05-07T02:37:51;6.57;;;5.47;;
41667;SDS011;27356;50.920;5.350;2023-05-07T02:40:17;7.63;;;5.35;;
41667;SDS011;27356;50.920;5.350;2023-05-07T02:42:43;6.55;;;5.57;;
41667;SDS011;27356;50.920;5.350;2023-05-07T02:45:08;7.15;;;4.93;;
41667;SDS011;27356;50.920;5.350;2023-05-07T02:47:35;6.85;;;5.57;;
41667;SDS011;27356;50.920;5.350;2023-05-07T02:50:00;7.15;;;5.10;;
41667;SDS011;27356;50.920;5.350;2023-05-07T02:52:26;6.47;;;5.35;;
41667;SDS011;27356;50.920;5.350;2023-05-07T02:54:52;6.35;;;5.75;;
41667;SDS011;27356;50.920;5.350;2023-05-07T02:57:17;9.23;;;5.28;;
41667;SDS011;27356;50.920;5.350;2023-05-07T02:59:43;6.32;;;5.30;;
41667;SDS011;27356;50.920;5.350;2023-05-07T03:02:09;5.45;;;4.95;;
41667;SDS011;27356;50.920;5.350;2023-05-07T03:04:35;10.23;;;6.18;;
41667;SDS011;27356;50.920;5.350;2023-05-07T03:07:00;8.07;;;6.10;;
41667;SDS011;27356;50.920;5.350;2023-05-07T03:09:26;7.18;;;5.55;;
41667;SDS011;27356;50.920;5.350;2023-05-07T03:11:52;7.30;;;5.15;;
41667;SDS011;27356;50.920;5.350;2023-05-07T03:14:17;7.75;;;5.40;;
41667;SDS011;27356;50.920;5.350;2023-05-07T03:16:43;7.32;;;5.50;;
41667;SDS011;27356;50.920;5.350;2023-05-07T03:19:09;8.85;;;5.82;;
41667;SDS011;27356;50.920;5.350;2023-05-07T03:21:34;8.52;;;5.70;;
41667;SDS011;27356;50.920;5.350;2023-05-07T03:24:00;6.22;;;5.57;;
41667;SDS011;27356;50.920;5.350;2023-05-07T03:26:26;10.55;;;6.13;;
41667;SDS011;27356;50.920;5.350;2023-05-07T03:28:51;6.53;;;5.57;;
41667;SDS011;27356;50.920;5.350;2023-05-07T03:31:17;13.23;;;6.80;;
41667;SDS011;27356;50.920;5.350;2023-05-07T03:33:53;8.70;;;6.15;;
41667;SDS011;27356;50.920;5.350;2023-05-07T03:36:20;8.05;;;5.82;;
41667;SDS011;27356;50.920;5.350;2023-05-07T03:38:46;7.70;;;5.43;;
41667;SDS011;27356;50.920;5.350;2023-05-07T03:41:13;7.80;;;5.47;;
41667;SDS011;27356;50.920;5.350;2023-05-07T03:43:39;7.60;;;5.50;;
41667;SDS011;27356;50.920;5.350;2023-05-07T03:46:04;10.98;;;5.75;;
41667;SDS011;27356;50.920;5.350;2023-05-07T03:48:30;8.73;;;5.85;;
41667;SDS011;27356;50.920;5.350;2023-05-07T03:50:57;6.35;;;5.75;;
41667;SDS011;27356;50.920;5.350;2023-05-07T03:53:22;7.32;;;5.95;;
41667;SDS011;27356;50.920;5.350;2023-05-07T03:55:48;7.43;;;5.82;;
41667;SDS011;27356;50.920;5.350;2023-05-07T03:58:14;5.82;;;5.25;;
41667;SDS011;27356;50.920;5.350;2023-05-07T04:00:40;7.95;;;6.22;;
41667;SDS011;27356;50.920;5.350;2023-05-07T04:03:06;7.07;;;6.18;;
41667;SDS011;27356;50.920;5.350;2023-05-07T04:05:32;6.57;;;5.75;;
41667;SDS011;27356;50.920;5.350;2023-05-07T04:07:58;6.40;;;5.30;;
41667;SDS011;27356;50.920;5.350;2023-05-07T04:10:24;7.53;;;6.32;;
41667;SDS011;27356;50.920;5.350;2023-05-07T04:12:50;7.88;;;6.65;;
41667;SDS011;27356;50.920;5.350;2023-05-07T04:15:16;8.93;;;6.60;;
41667;SDS011;27356;50.920;5.350;2023-05-07T04:17:41;10.57;;;7.05;;
41667;SDS011;27356;50.920;5.350;2023-05-07T04:20:14;15.07;;;6.80;;
41667;SDS011;27356;50.920;5.350;2023-05-07T04:22:41;11.38;;;7.38;;
41667;SDS011;27356;50.920;5.350;2023-05-07T04:25:07;8.00;;;7.18;;
41667;SDS011;27356;50.920;5.350;2023-05-07T04:27:36;8.95;;;6.97;;
41667;SDS011;27356;50.920;5.350;2023-05-07T04:30:02;7.78;;;6.72;;
41667;SDS011;27356;50.920;5.350;2023-05-07T04:32:29;7.53;;;6.78;;
41667;SDS011;27356;50.920;5.350;2023-05-07T04:34:55;8.15;;;6.65;;
41667;SDS011;27356;50.920;5.350;2023-05-07T04:37:21;11.13;;;7.05;;
41667;SDS011;27356;50.920;5.350;2023-05-07T04:39:47;9.30;;;6.60;;
41667;SDS011;27356;50.920;5.350;2023-05-07T04:42:16;7.97;;;6.57;;
41667;SDS011;27356;50.920;5.350;2023-05-07T04:44:43;9.93;;;7.68;;
41667;SDS011;27356;50.920;5.350;2023-05-07T04:47:10;8.70;;;7.30;;
41667;SDS011;27356;50.920;5.350;2023-05-07T04:49:36;11.38;;;7.45;;
41667;SDS011;27356;50.920;5.350;2023-05-07T04:52:03;8.32;;;7.53;;
41667;SDS011;27356;50.920;5.350;2023-05-07T04:54:29;9.88;;;7.43;;
41667;SDS011;27356;50.920;5.350;2023-05-07T04:56:55;8.68;;;7.60;;
41667;SDS011;27356;50.920;5.350;2023-05-07T04:59:21;8.82;;;7.20;;
41667;SDS011;27356;50.920;5.350;2023-05-07T05:01:46;7.72;;;5.95;;
41667;SDS011;27356;50.920;5.350;2023-05-07T05:04:12;9.10;;;7.15;;
41667;SDS011;27356;50.920;5.350;2023-05-07T05:06:38;7.68;;;6.78;;
41667;SDS011;27356;50.920;5.350;2023-05-07T05:09:04;7.25;;;6.28;;
41667;SDS011;27356;50.920;5.350;2023-05-07T05:11:30;10.15;;;6.82;;
41667;SDS011;27356;50.920;5.350;2023-05-07T05:13:56;8.63;;;6.57;;
41667;SDS011;27356;50.920;5.350;2023-05-07T05:16:22;8.77;;;6.28;;
41667;SDS011;27356;50.920;5.350;2023-05-07T05:18:48;6.95;;;6.25;;
41667;SDS011;27356;50.920;5.350;2023-05-07T05:21:17;9.38;;;5.75;;
41667;SDS011;27356;50.920;5.350;2023-05-07T05:23:43;6.97;;;5.50;;
41667;SDS011;27356;50.920;5.350;2023-05-07T05:26:08;8.15;;;6.15;;
41667;SDS011;27356;50.920;5.350;2023-05-07T05:28:34;6.63;;;5.70;;
41667;SDS011;27356;50.920;5.350;2023-05-07T05:31:00;11.18;;;6.10;;
41667;SDS011;27356;50.920;5.350;2023-05-07T05:33:25;7.53;;;5.53;;
41667;SDS011;27356;50.920;5.350;2023-05-07T05:35:51;6.03;;;5.10;;
41667;SDS011;27356;50.920;5.350;2023-05-07T05:38:18;5.57;;;4.97;;
41667;SDS011;27356;50.920;5.350;2023-05-07T05:40:44;5.18;;;4.68;;
41667;SDS011;27356;50.920;5.350;2023-05-07T05:43:09;6.18;;;4.80;;
41667;SDS011;27356;50.920;5.350;2023-05-07T05:45:35;6.30;;;5.30;;
41667;SDS011;27356;50.920;5.350;2023-05-07T05:48:01;5.43;;;4.55;;
41667;SDS011;27356;50.920;5.350;2023-05-07T05:50:26;4.65;;;4.25;;
41667;SDS011;27356;50.920;5.350;2023-05-07T05:52:52;5.10;;;4.22;;
41667;SDS011;27356;50.920;5.350;2023-05-07T05:55:18;4.93;;;4.20;;
41667;SDS011;27356;50.920;5.350;2023-05-07T05:57:43;5.07;;;4.05;;
41667;SDS011;27356;50.920;5.350;2023-05-07T06:00:09;5.82;;;4.22;;
41667;SDS011;27356;50.920;5.350;2023-05-07T06:02:35;4.55;;;3.72;;
41667;SDS011;27356;50.920;5.350;2023-05-07T06:05:01;5.28;;;3.83;;
41667;SDS011;27356;50.920;5.350;2023-05-07T06:07:28;5.07;;;3.28;;
41667;SDS011;27356;50.920;5.350;2023-05-07T06:09:53;4.20;;;3.83;;
41667;SDS011;27356;50.920;5.350;2023-05-07T06:12:20;5.60;;;3.80;;
41667;SDS011;27356;50.920;5.350;2023-05-07T06:14:46;5.65;;;3.55;;
41667;SDS011;27356;50.920;5.350;2023-05-07T06:17:12;5.22;;;3.90;;
41667;SDS011;27356;50.920;5.350;2023-05-07T06:19:38;6.78;;;4.20;;
41667;SDS011;27356;50.920;5.350;2023-05-07T06:22:03;4.20;;;3.85;;
41667;SDS011;27356;50.920;5.350;2023-05-07T06:24:29;4.00;;;3.60;;
41667;SDS011;27356;50.920;5.350;2023-05-07T06:26:55;5.57;;;3.75;;
41667;SDS011;27356;50.920;5.350;2023-05-07T06:29:20;5.63;;;3.70;;
41667;SDS011;27356;50.920;5.350;2023-05-07T06:31:46;6.13;;;3.83;;
41667;SDS011;27356;50.920;5.350;2023-05-07T06:34:12;4.47;;;3.60;;
41667;SDS011;27356;50.920;5.350;2023-05-07T06:36:40;3.50;;;3.20;;
41667;SDS011;27356;50.920;5.350;2023-05-07T06:39:06;4.20;;;3.53;;
41667;SDS011;27356;50.920;5.350;2023-05-07T06:41:32;4.03;;;3.05;;
41667;SDS011;27356;50.920;5.350;2023-05-07T06:43:57;7.07;;;3.65;;
41667;SDS011;27356;50.920;5.350;2023-05-07T06:46:23;4.53;;;3.40;;
41667;SDS011;27356;50.920;5.350;2023-05-07T06:48:49;4.75;;;3.45;;
41667;SDS011;27356;50.920;5.350;2023-05-07T06:51:14;3.53;;;3.22;;
41667;SDS011;27356;50.920;5.350;2023-05-07T06:53:40;3.45;;;2.78;;
41667;SDS011;27356;50.920;5.350;2023-05-07T06:56:06;3.65;;;3.00;;
41667;SDS011;27356;50.920;5.350;2023-05-07T06:58:31;3.65;;;3.35;;
41667;SDS011;27356;50.920;5.350;2023-05-07T07:00:58;5.43;;;3.50;;
41667;SDS011;27356;50.920;5.350;2023-05-07T07:03:23;4.55;;;2.88;;
41667;SDS011;27356;50.920;5.350;2023-05-07T07:05:52;4.20;;;3.80;;
41667;SDS011;27356;50.920;5.350;2023-05-07T07:08:19;3.50;;;3.20;;
41667;SDS011;27356;50.920;5.350;2023-05-07T07:10:46;4.75;;;2.75;;
41667;SDS011;27356;50.920;5.350;2023-05-07T07:13:12;3.63;;;3.30;;
41667;SDS011;27356;50.920;5.350;2023-05-07T07:15:38;5.28;;;3.30;;
41667;SDS011;27356;50.920;5.350;2023-05-07T07:18:04;4.72;;;3.42;;
41667;SDS011;27356;50.920;5.350;2023-05-07T07:20:30;4.68;;;2.80;;
41667;SDS011;27356;50.920;5.350;2023-05-07T07:22:55;4.72;;;3.00;;
41667;SDS011;27356;50.920;5.350;2023-05-07T07:25:21;3.08;;;2.45;;
41667;SDS011;27356;50.920;5.350;2023-05-07T07:27:47;3.20;;;2.40;;
41667;SDS011;27356;50.920;5.350;2023-05-07T07:30:12;4.97;;;2.88;;
41667;SDS011;27356;50.920;5.350;2023-05-07T07:32:38;5.22;;;2.97;;
41667;SDS011;27356;50.920;5.350;2023-05-07T07:35:04;3.92;;;2.83;;
41667;SDS011;27356;50.920;5.350;2023-05-07T07:37:30;3.08;;;2.50;;
41667;SDS011;27356;50.920;5.350;2023-05-07T07:39:56;4.80;;;2.90;;
41667;SDS011;27356;50.920;5.350;2023-05-07T07:42:21;4.07;;;2.45;;
41667;SDS011;27356;50.920;5.350;2023-05-07T07:44:47;2.92;;;2.42;;
41667;SDS011;27356;50.920;5.350;2023-05-07T07:47:13;3.92;;;2.38;;
41667;SDS011;27356;50.920;5.350;2023-05-07T07:49:39;2.90;;;2.67;;
41667;SDS011;27356;50.920;5.350;2023-05-07T07:52:04;5.05;;;2.40;;
41667;SDS011;27356;50.920;5.350;2023-05-07T07:54:30;4.38;;;2.45;;
41667;SDS011;27356;50.920;5.350;2023-05-07T07:56:56;2.60;;;2.30;;
41667;SDS011;27356;50.920;5.350;2023-05-07T07:59:22;4.82;;;3.28;;
41667;SDS011;27356;50.920;5.350;2023-05-07T08:01:48;4.05;;;2.03;;
41667;SDS011;27356;50.920;5.350;2023-05-07T08:04:15;5.30;;;2.63;;
41667;SDS011;27356;50.920;5.350;2023-05-07T08:06:40;2.95;;;2.10;;
41667;SDS011;27356;50.920;5.350;2023-05-07T08:09:07;5.00;;;2.40;;
41667;SDS011;27356;50.920;5.350;2023-05-07T08:11:33;2.30;;;2.10;;
41667;SDS011;27356;50.920;5.350;2023-05-07T08:13:59;6.75;;;1.60;;
41667;SDS011;27356;50.920;5.350;2023-05-07T08:16:25;2.95;;;2.00;;
41667;SDS011;27356;50.920;5.350;2023-05-07T08:18:50;2.53;;;1.80;;
41667;SDS011;27356;50.920;5.350;2023-05-07T08:21:16;3.90;;;1.92;;
41667;SDS011;27356;50.920;5.350;2023-05-07T08:23:42;2.63;;;2.30;;
41667;SDS011;27356;50.920;5.350;2023-05-07T08:26:08;8.20;;;2.53;;
41667;SDS011;27356;50.920;5.350;2023-05-07T08:28:33;2.17;;;1.98;;
41667;SDS011;27356;50.920;5.350;2023-05-07T08:30:59;3.83;;;2.30;;
41667;SDS011;27356;50.920;5.350;2023-05-07T08:33:26;3.50;;;2.38;;
41667;SDS011;27356;50.920;5.350;2023-05-07T08:35:51;2.75;;;2.15;;
41667;SDS011;27356;50.920;5.350;2023-05-07T08:38:17;5.57;;;2.25;;
41667;SDS011;27356;50.920;5.350;2023-05-07T08:40:43;3.13;;;2.33;;
41667;SDS011;27356;50.920;5.350;2023-05-07T08:43:08;6.03;;;2.75;;
41667;SDS011;27356;50.920;5.350;2023-05-07T08:45:39;2.58;;;2.03;;
41667;SDS011;27356;50.920;5.350;2023-05-07T08:48:09;3.97;;;2.03;;
41667;SDS011;27356;50.920;5.350;2023-05-07T08:50:40;6.05;;;2.65;;
41667;SDS011;27356;50.920;5.350;2023-05-07T08:53:06;4.53;;;2.38;;
41667;SDS011;27356;50.920;5.350;2023-05-07T08:55:32;5.13;;;2.72;;
41667;SDS011;27356;50.920;5.350;2023-05-07T08:57:58;4.35;;;2.20;;
41667;SDS011;27356;50.920;5.350;2023-05-07T09:00:30;4.47;;;1.90;;
41667;SDS011;27356;50.920;5.350;2023-05-07T09:02:55;4.78;;;2.03;;
41667;SDS011;27356;50.920;5.350;2023-05-07T09:05:21;3.92;;;1.90;;
41667;SDS011;27356;50.920;5.350;2023-05-07T09:07:47;4.25;;;1.88;;
41667;SDS011;27356;50.920;5.350;2023-05-07T09:10:13;4.78;;;2.08;;
41667;SDS011;27356;50.920;5.350;2023-05-07T09:12:39;3.63;;;1.80;;
41667;SDS011;27356;50.920;5.350;2023-05-07T09:15:05;2.40;;;1.73;;
41667;SDS011;27356;50.920;5.350;2023-05-07T09:17:31;9.63;;;2.00;;
41667;SDS011;27356;50.920;5.350;2023-05-07T09:20:02;5.65;;;2.17;;
41667;SDS011;27356;50.920;5.350;2023-05-07T09:22:31;3.58;;;2.13;;
41667;SDS011;27356;50.920;5.350;2023-05-07T09:24:58;10.10;;;2.25;;
41667;SDS011;27356;50.920;5.350;2023-05-07T09:27:24;5.85;;;2.97;;
41667;SDS011;27356;50.920;5.350;2023-05-07T09:29:50;6.50;;;2.83;;
41667;SDS011;27356;50.920;5.350;2023-05-07T09:32:16;3.47;;;2.50;;
41667;SDS011;27356;50.920;5.350;2023-05-07T09:34:42;6.10;;;2.38;;
41667;SDS011;27356;50.920;5.350;2023-05-07T09:37:08;3.17;;;2.25;;
41667;SDS011;27356;50.920;5.350;2023-05-07T09:39:43;2.33;;;2.08;;
41667;SDS011;27356;50.920;5.350;2023-05-07T09:42:10;4.32;;;2.72;;
41667;SDS011;27356;50.920;5.350;2023-05-07T09:44:36;3.30;;;2.67;;
41667;SDS011;27356;50.920;5.350;2023-05-07T09:47:06;5.00;;;2.55;;
41667;SDS011;27356;50.920;5.350;2023-05-07T09:49:35;6.60;;;2.50;;
41667;SDS011;27356;50.920;5.350;2023-05-07T09:52:03;4.28;;;2.17;;
41667;SDS011;27356;50.920;5.350;2023-05-07T09:54:36;3.42;;;2.00;;
41667;SDS011;27356;50.920;5.350;2023-05-07T09:57:05;5.95;;;2.50;;
41667;SDS011;27356;50.920;5.350;2023-05-07T09:59:32;4.18;;;2.05;;
41667;SDS011;27356;50.920;5.350;2023-05-07T10:02:00;8.68;;;2.25;;
41667;SDS011;27356;50.920;5.350;2023-05-07T10:04:26;3.17;;;2.20;;
41667;SDS011;27356;50.920;5.350;2023-05-07T10:06:53;7.32;;;2.63;;
41667;SDS011;27356;50.920;5.350;2023-05-07T10:09:20;6.18;;;2.53;;
41667;SDS011;27356;50.920;5.350;2023-05-07T10:11:47;5.03;;;2.65;;
41667;SDS011;27356;50.920;5.350;2023-05-07T10:14:14;5.82;;;2.50;;
41667;SDS011;27356;50.920;5.350;2023-05-07T10:16:40;5.20;;;2.63;;
41667;SDS011;27356;50.920;5.350;2023-05-07T10:19:07;5.35;;;2.92;;
41667;SDS011;27356;50.920;5.350;2023-05-07T10:21:38;4.57;;;2.38;;
41667;SDS011;27356;50.920;5.350;2023-05-07T10:24:13;6.32;;;2.58;;
41667;SDS011;27356;50.920;5.350;2023-05-07T10:26:50;6.55;;;2.70;;
41667;SDS011;27356;50.920;5.350;2023-05-07T10:34:26;6.88;;;2.90;;
41667;SDS011;27356;50.920;5.350;2023-05-07T10:36:59;5.80;;;2.40;;
41667;SDS011;27356;50.920;5.350;2023-05-07T10:39:25;6.45;;;2.97;;
41667;SDS011;27356;50.920;5.350;2023-05-07T10:41:51;7.65;;;2.33;;
41667;SDS011;27356;50.920;5.350;2023-05-07T10:44:26;4.88;;;2.45;;
41667;SDS011;27356;50.920;5.350;2023-05-07T10:47:09;8.73;;;3.10;;
41667;SDS011;27356;50.920;5.350;2023-05-07T10:49:37;5.53;;;2.30;;
41667;SDS011;27356;50.920;5.350;2023-05-07T10:52:22;4.30;;;2.80;;
41667;SDS011;27356;50.920;5.350;2023-05-07T10:55:18;7.25;;;2.35;;
41667;SDS011;27356;50.920;5.350;2023-05-07T10:57:43;6.18;;;2.75;;
41667;SDS011;27356;50.920;5.350;2023-05-07T11:05:25;5.75;;;2.67;;
41667;SDS011;27356;50.920;5.350;2023-05-07T11:07:56;6.82;;;3.00;;
41667;SDS011;27356;50.920;5.350;2023-05-07T11:13:13;6.15;;;2.75;;
41667;SDS011;27356;50.920;5.350;2023-05-07T11:15:41;6.97;;;2.42;;
41667;SDS011;27356;50.920;5.350;2023-05-07T11:18:09;5.70;;;2.75;;
41667;SDS011;27356;50.920;5.350;2023-05-07T11:20:45;4.78;;;3.17;;
41667;SDS011;27356;50.920;5.350;2023-05-07T11:26:03;6.47;;;2.97;;
41667;SDS011;27356;50.920;5.350;2023-05-07T11:28:30;4.65;;;2.17;;
41667;SDS011;27356;50.920;5.350;2023-05-07T11:31:01;4.30;;;2.25;;
41667;SDS011;27356;50.920;5.350;2023-05-07T11:33:28;3.58;;;2.28;;
41667;SDS011;27356;50.920;5.350;2023-05-07T11:35:55;5.60;;;2.47;;
41667;SDS011;27356;50.920;5.350;2023-05-07T11:38:22;3.75;;;2.33;;
41667;SDS011;27356;50.920;5.350;2023-05-07T11:40:48;6.53;;;2.53;;
41667;SDS011;27356;50.920;5.350;2023-05-07T11:43:18;7.40;;;2.25;;
41667;SDS011;27356;50.920;5.350;2023-05-07T11:45:44;4.30;;;2.40;;
41667;SDS011;27356;50.920;5.350;2023-05-07T11:48:12;4.38;;;2.08;;
41667;SDS011;27356;50.920;5.350;2023-05-07T11:50:51;8.15;;;2.45;;
41667;SDS011;27356;50.920;5.350;2023-05-07T11:53:18;5.00;;;2.28;;
41667;SDS011;27356;50.920;5.350;2023-05-07T11:55:45;4.60;;;2.42;;
41667;SDS011;27356;50.920;5.350;2023-05-07T11:58:12;4.70;;;2.30;;
41667;SDS011;27356;50.920;5.350;2023-05-07T12:00:38;4.72;;;2.17;;
41667;SDS011;27356;50.920;5.350;2023-05-07T12:03:04;7.13;;;2.50;;
41667;SDS011;27356;50.920;5.350;2023-05-07T12:05:30;5.63;;;2.60;;
41667;SDS011;27356;50.920;5.350;2023-05-07T12:07:59;5.53;;;2.38;;
41667;SDS011;27356;50.920;5.350;2023-05-07T12:10:25;7.82;;;2.88;;
41667;SDS011;27356;50.920;5.350;2023-05-07T12:12:51;8.40;;;2.63;;
41667;SDS011;27356;50.920;5.350;2023-05-07T12:15:17;5.10;;;2.58;;
41667;SDS011;27356;50.920;5.350;2023-05-07T12:17:42;5.32;;;2.60;;
41667;SDS011;27356;50.920;5.350;2023-05-07T12:20:09;7.88;;;3.25;;
41667;SDS011;27356;50.920;5.350;2023-05-07T12:22:35;5.68;;;2.70;;
41667;SDS011;27356;50.920;5.350;2023-05-07T12:25:01;5.07;;;2.47;;
41667;SDS011;27356;50.920;5.350;2023-05-07T12:27:28;8.00;;;2.85;;
41667;SDS011;27356;50.920;5.350;2023-05-07T12:29:53;6.13;;;2.38;;
41667;SDS011;27356;50.920;5.350;2023-05-07T12:32:20;4.32;;;2.25;;
41667;SDS011;27356;50.920;5.350;2023-05-07T12:34:46;7.35;;;3.13;;
41667;SDS011;27356;50.920;5.350;2023-05-07T12:37:16;6.25;;;3.13;;
41667;SDS011;27356;50.920;5.350;2023-05-07T12:39:47;2.55;;;1.98;;
41667;SDS011;27356;50.920;5.350;2023-05-07T12:42:18;3.70;;;2.35;;
41667;SDS011;27356;50.920;5.350;2023-05-07T12:44:48;2.80;;;1.80;;
41667;SDS011;27356;50.920;5.350;2023-05-07T12:47:14;6.97;;;2.25;;
41667;SDS011;27356;50.920;5.350;2023-05-07T12:49:40;4.75;;;1.88;;
41667;SDS011;27356;50.920;5.350;2023-05-07T12:52:07;4.78;;;2.60;;
41667;SDS011;27356;50.920;5.350;2023-05-07T12:54:34;5.78;;;1.50;;
41667;SDS011;27356;50.920;5.350;2023-05-07T12:57:08;4.07;;;1.77;;
41667;SDS011;27356;50.920;5.350;2023-05-07T13:02:07;4.47;;;1.95;;
41667;SDS011;27356;50.920;5.350;2023-05-07T13:04:34;4.40;;;1.77;;
41667;SDS011;27356;50.920;5.350;2023-05-07T13:07:00;4.25;;;1.60;;
41667;SDS011;27356;50.920;5.350;2023-05-07T13:09:26;5.43;;;1.30;;
41667;SDS011;27356;50.920;5.350;2023-05-07T13:11:54;4.30;;;1.52;;
41667;SDS011;27356;50.920;5.350;2023-05-07T13:14:20;8.15;;;1.70;;
41667;SDS011;27356;50.920;5.350;2023-05-07T13:16:46;4.20;;;1.73;;
41667;SDS011;27356;50.920;5.350;2023-05-07T13:19:12;2.80;;;1.48;;
41667;SDS011;27356;50.920;5.350;2023-05-07T13:21:38;4.80;;;1.63;;
41667;SDS011;27356;50.920;5.350;2023-05-07T13:24:03;3.13;;;1.55;;
41667;SDS011;27356;50.920;5.350;2023-05-07T13:26:30;3.60;;;1.60;;
41667;SDS011;27356;50.920;5.350;2023-05-07T13:28:56;4.85;;;1.95;;
41667;SDS011;27356;50.920;5.350;2023-05-07T13:31:22;3.67;;;2.28;;
41667;SDS011;27356;50.920;5.350;2023-05-07T13:33:48;2.80;;;1.77;;
41667;SDS011;27356;50.920;5.350;2023-05-07T13:36:14;4.72;;;1.80;;
41667;SDS011;27356;50.920;5.350;2023-05-07T13:38:40;3.55;;;1.80;;
41667;SDS011;27356;50.920;5.350;2023-05-07T13:41:05;4.03;;;1.58;;
41667;SDS011;27356;50.920;5.350;2023-05-07T13:43:31;3.40;;;1.30;;
41667;SDS011;27356;50.920;5.350;2023-05-07T13:45:58;4.13;;;1.65;;
41667;SDS011;27356;50.920;5.350;2023-05-07T13:48:24;4.35;;;1.67;;
41667;SDS011;27356;50.920;5.350;2023-05-07T13:50:50;4.70;;;1.42;;
41667;SDS011;27356;50.920;5.350;2023-05-07T13:53:16;3.53;;;1.23;;
41667;SDS011;27356;50.920;5.350;2023-05-07T13:55:43;2.92;;;1.80;;
41667;SDS011;27356;50.920;5.350;2023-05-07T13:58:09;3.20;;;1.45;;
41667;SDS011;27356;50.920;5.350;2023-05-07T14:00:35;4.18;;;1.40;;
41667;SDS011;27356;50.920;5.350;2023-05-07T14:03:01;3.47;;;1.33;;
41667;SDS011;27356;50.920;5.350;2023-05-07T14:05:27;3.10;;;1.42;;
41667;SDS011;27356;50.920;5.350;2023-05-07T14:07:56;5.38;;;1.38;;
41667;SDS011;27356;50.920;5.350;2023-05-07T14:10:23;4.22;;;1.40;;
41667;SDS011;27356;50.920;5.350;2023-05-07T14:12:49;4.88;;;1.50;;
41667;SDS011;27356;50.920;5.350;2023-05-07T14:15:15;2.97;;;1.33;;
41667;SDS011;27356;50.920;5.350;2023-05-07T14:17:41;4.03;;;1.52;;
41667;SDS011;27356;50.920;5.350;2023-05-07T14:20:07;3.15;;;1.40;;
41667;SDS011;27356;50.920;5.350;2023-05-07T14:22:33;3.42;;;1.02;;
41667;SDS011;27356;50.920;5.350;2023-05-07T14:24:59;3.10;;;1.20;;
41667;SDS011;27356;50.920;5.350;2023-05-07T14:27:25;4.18;;;1.30;;
41667;SDS011;27356;50.920;5.350;2023-05-07T14:29:50;2.95;;;1.27;;
41667;SDS011;27356;50.920;5.350;2023-05-07T14:32:17;5.45;;;1.25;;
41667;SDS011;27356;50.920;5.350;2023-05-07T14:34:43;2.92;;;1.13;;
41667;SDS011;27356;50.920;5.350;2023-05-07T14:37:09;4.70;;;1.67;;
41667;SDS011;27356;50.920;5.350;2023-05-07T14:39:35;1.60;;;1.10;;
41667;SDS011;27356;50.920;5.350;2023-05-07T14:42:01;3.47;;;1.40;;
41667;SDS011;27356;50.920;5.350;2023-05-07T14:44:27;3.40;;;1.45;;
41667;SDS011;27356;50.920;5.350;2023-05-07T14:46:53;4.10;;;1.58;;
41667;SDS011;27356;50.920;5.350;2023-05-07T14:49:18;3.20;;;1.55;;
41667;SDS011;27356;50.920;5.350;2023-05-07T14:51:45;3.92;;;1.50;;
41667;SDS011;27356;50.920;5.350;2023-05-07T14:54:11;5.55;;;1.75;;
41667;SDS011;27356;50.920;5.350;2023-05-07T14:56:37;3.10;;;1.00;;
41667;SDS011;27356;50.920;5.350;2023-05-07T14:59:04;4.45;;;1.10;;
41667;SDS011;27356;50.920;5.350;2023-05-07T15:01:30;3.75;;;0.93;;
41667;SDS011;27356;50.920;5.350;2023-05-07T15:03:56;3.38;;;1.52;;